createdAt,value
2018-12-06T00:01:25.396Z,101269.09
2018-12-06T00:03:53.140Z,101269.00
2018-12-06T00:06:20.909Z,101274.00
2018-12-06T00:08:48.662Z,101272.09
2018-12-06T00:11:16.530Z,101269.42
2018-12-06T00:13:44.305Z,101274.01
2018-12-06T00:16:12.093Z,101266.84
2018-12-06T00:18:40.274Z,101251.87
2018-12-06T00:21:08.024Z,101249.33
2018-12-06T00:23:35.826Z,101239.94
2018-12-06T00:26:03.575Z,101247.55
2018-12-06T00:28:31.295Z,101243.77
2018-12-06T00:30:59.037Z,101239.27
2018-12-06T00:33:26.840Z,101244.84
2018-12-06T00:35:54.616Z,101238.14
2018-12-06T00:38:23.298Z,101236.64
2018-12-06T00:40:51.066Z,101232.77
2018-12-06T00:43:18.851Z,101230.70
2018-12-06T00:45:46.660Z,101222.04
2018-12-06T00:48:14.402Z,101218.05
2018-12-06T00:50:42.174Z,101221.20
2018-12-06T00:53:09.920Z,101217.77
2018-12-06T00:55:37.706Z,101208.27
2018-12-06T00:58:05.585Z,101212.64
2018-12-06T01:00:33.373Z,101207.48
2018-12-06T01:03:01.148Z,101205.19
2018-12-06T01:05:29.021Z,101203.69
2018-12-06T01:07:56.737Z,101206.64
2018-12-06T01:10:24.480Z,101209.04
2018-12-06T01:12:52.260Z,101207.00
2018-12-06T01:15:20.880Z,101212.66
2018-12-06T01:17:48.640Z,101213.06
2018-12-06T01:20:16.588Z,101219.86
2018-12-06T01:22:44.353Z,101218.64
2018-12-06T01:25:12.270Z,101225.66
2018-12-06T01:27:40.046Z,101222.89
2018-12-06T01:30:08.053Z,101227.48
2018-12-06T01:32:35.850Z,101232.98
2018-12-06T01:35:03.798Z,101230.46
2018-12-06T01:37:31.634Z,101226.30
2018-12-06T01:39:59.416Z,101226.06
2018-12-06T01:42:27.176Z,101225.69
2018-12-06T01:44:54.952Z,101237.24
2018-12-06T01:47:22.713Z,101232.80
2018-12-06T01:49:50.455Z,101235.23
2018-12-06T01:52:18.260Z,101234.87
2018-12-06T01:54:46.055Z,101219.42
2018-12-06T01:57:13.853Z,101201.72
2018-12-06T01:59:41.661Z,101190.83
2018-12-06T02:02:09.449Z,101182.75
2018-12-06T02:04:37.188Z,101173.44
2018-12-06T02:07:04.954Z,101174.05
2018-12-06T02:09:32.728Z,101180.82
2018-12-06T02:12:00.518Z,101184.22
2018-12-06T02:14:28.237Z,101186.20
2018-12-06T02:16:55.994Z,101187.09
2018-12-06T02:19:23.781Z,101194.62
2018-12-06T02:21:51.531Z,101201.59
2018-12-06T02:24:19.289Z,101197.11
2018-12-06T02:26:47.038Z,101204.69
2018-12-06T02:29:14.798Z,101195.17
2018-12-06T02:31:42.589Z,101190.22
2018-12-06T02:34:10.317Z,101182.13
2018-12-06T02:36:38.108Z,101187.38
2018-12-06T02:39:07.525Z,101183.30
2018-12-06T02:41:35.343Z,101181.94
2018-12-06T02:44:03.228Z,101181.09
2018-12-06T02:46:30.998Z,101187.31
2018-12-06T02:48:58.777Z,101187.27
2018-12-06T02:51:27.161Z,101176.69
2018-12-06T02:53:54.978Z,101172.47
2018-12-06T02:56:22.715Z,101164.89
2018-12-06T02:58:50.467Z,101154.88
2018-12-06T03:01:18.262Z,101163.93
2018-12-06T03:03:46.070Z,101170.08
2018-12-06T03:06:13.856Z,101166.77
2018-12-06T03:08:42.454Z,101157.80
2018-12-06T03:11:10.228Z,101159.16
2018-12-06T03:13:38.017Z,101150.53
2018-12-06T03:16:05.812Z,101148.75
2018-12-06T03:18:33.594Z,101157.92
2018-12-06T03:21:01.357Z,101168.62
2018-12-06T03:23:29.098Z,101167.86
2018-12-06T03:25:56.833Z,101165.09
2018-12-06T03:28:24.585Z,101167.84
2018-12-06T03:30:52.350Z,101170.13
2018-12-06T03:33:20.085Z,101171.38
2018-12-06T03:35:47.843Z,101176.82
2018-12-06T03:38:15.629Z,101181.59
2018-12-06T03:40:43.391Z,101192.35
2018-12-06T03:43:11.302Z,101205.69
2018-12-06T03:45:39.087Z,101207.28
2018-12-06T03:48:06.830Z,101213.14
2018-12-06T03:50:34.631Z,101204.93
2018-12-06T03:53:02.393Z,101201.42
2018-12-06T03:55:30.151Z,101214.11
2018-12-06T03:57:57.902Z,101211.84
2018-12-06T04:00:25.636Z,101207.16
2018-12-06T04:02:53.391Z,101207.50
2018-12-06T04:05:21.211Z,101198.27
2018-12-06T04:07:48.950Z,101196.25
2018-12-06T04:10:16.693Z,101189.69
2018-12-06T04:12:44.626Z,101189.48
2018-12-06T04:15:12.505Z,101180.30
2018-12-06T04:17:40.339Z,101179.75
2018-12-06T04:20:08.116Z,101171.06
2018-12-06T04:22:35.929Z,101162.35
2018-12-06T04:25:03.865Z,101156.97
2018-12-06T04:27:31.610Z,101158.29
2018-12-06T04:29:59.471Z,101159.31
2018-12-06T04:32:27.274Z,101158.08
2018-12-06T04:34:55.062Z,101155.37
2018-12-06T04:37:22.851Z,101157.95
2018-12-06T04:39:50.635Z,101156.55
2018-12-06T04:42:18.401Z,101157.31
2018-12-06T04:44:46.256Z,101157.95
2018-12-06T04:47:14.348Z,101146.19
2018-12-06T04:49:42.290Z,101143.14
2018-12-06T04:52:10.073Z,101142.88
2018-12-06T04:54:37.810Z,101140.38
2018-12-06T04:57:05.574Z,101142.58
2018-12-06T04:59:33.335Z,101140.84
2018-12-06T05:02:01.145Z,101137.67
2018-12-06T05:04:28.937Z,101132.25
2018-12-06T05:06:56.746Z,101137.76
2018-12-06T05:09:24.489Z,101149.77
2018-12-06T05:11:52.266Z,101147.36
2018-12-06T05:14:21.279Z,101128.15
2018-12-06T05:16:49.241Z,101138.09
2018-12-06T05:19:17.049Z,101144.77
2018-12-06T05:21:44.813Z,101141.01
2018-12-06T05:24:12.617Z,101136.44
2018-12-06T05:26:40.686Z,101141.18
2018-12-06T05:29:08.467Z,101148.92
2018-12-06T05:31:36.236Z,101154.30
2018-12-06T05:34:04.142Z,101160.40
2018-12-06T05:36:31.938Z,101166.83
2018-12-06T05:38:59.717Z,101172.08
2018-12-06T05:41:27.510Z,101172.77
2018-12-06T05:43:55.267Z,101172.08
2018-12-06T05:46:23.032Z,101179.11
2018-12-06T05:48:50.887Z,101179.45
2018-12-06T05:51:18.604Z,101184.91
2018-12-06T05:53:46.409Z,101193.21
2018-12-06T05:56:14.221Z,101203.41
2018-12-06T05:58:42.845Z,101193.67
2018-12-06T06:01:10.589Z,101200.10
2018-12-06T06:03:38.359Z,101204.80
2018-12-06T06:06:06.100Z,101197.27
2018-12-06T06:08:33.875Z,101204.89
2018-12-06T06:11:02.017Z,101207.86
2018-12-06T06:13:29.773Z,101209.59
2018-12-06T06:15:57.583Z,101212.89
2018-12-06T06:18:25.370Z,101215.98
2018-12-06T06:20:53.137Z,101217.50
2018-12-06T06:23:20.947Z,101213.86
2018-12-06T06:25:48.753Z,101213.64
2018-12-06T06:28:17.873Z,101212.36
2018-12-06T06:30:45.693Z,101216.55
2018-12-06T06:33:13.426Z,101210.41
2018-12-06T06:35:41.210Z,101220.71
2018-12-06T06:38:09.005Z,101229.84
2018-12-06T06:40:36.842Z,101225.07
2018-12-06T06:43:04.607Z,101230.09
2018-12-06T06:45:32.570Z,101244.88
2018-12-06T06:48:00.380Z,101229.97
2018-12-06T06:50:28.199Z,101233.56
2018-12-06T06:52:56.002Z,101255.05
2018-12-06T06:55:23.769Z,101256.86
2018-12-06T06:57:51.472Z,101263.05
2018-12-06T07:00:19.272Z,101263.55
2018-12-06T07:02:48.057Z,101275.50
2018-12-06T07:05:15.818Z,101271.22
2018-12-06T07:07:43.613Z,101269.56
2018-12-06T07:10:11.474Z,101262.88
2018-12-06T07:12:39.339Z,101275.13
2018-12-06T07:15:07.428Z,101279.95
2018-12-06T07:17:35.157Z,101280.84
2018-12-06T07:20:03.145Z,101288.85
2018-12-06T07:22:30.896Z,101286.30
2018-12-06T07:24:58.660Z,101271.53
2018-12-06T07:27:26.452Z,101267.84
2018-12-06T07:29:54.611Z,101264.23
2018-12-06T07:32:22.357Z,101273.70
2018-12-06T07:34:50.169Z,101282.19
2018-12-06T07:37:17.961Z,101280.98
2018-12-06T07:39:45.754Z,101290.84
2018-12-06T07:42:13.565Z,101289.41
2018-12-06T07:44:41.426Z,101288.41
2018-12-06T07:47:09.381Z,101285.36
2018-12-06T07:49:37.156Z,101291.36
2018-12-06T07:52:04.967Z,101287.95
2018-12-06T07:54:32.711Z,101284.08
2018-12-06T07:57:00.437Z,101298.67
2018-12-06T07:59:28.231Z,101293.30
2018-12-06T08:01:56.158Z,101284.44
2018-12-06T08:04:23.893Z,101290.00
2018-12-06T08:06:51.728Z,101300.83
2018-12-06T08:09:19.624Z,101290.43
2018-12-06T08:11:47.610Z,101287.06
2018-12-06T08:14:15.375Z,101300.10
2018-12-06T08:16:43.113Z,101297.36
2018-12-06T08:19:10.942Z,101298.13
2018-12-06T08:21:38.750Z,101303.16
2018-12-06T08:24:06.510Z,101289.73
2018-12-06T08:26:34.322Z,101280.10
2018-12-06T08:29:02.111Z,101275.38
2018-12-06T08:31:29.926Z,101273.92
2018-12-06T08:33:57.704Z,101274.53
2018-12-06T08:36:25.461Z,101267.22
2018-12-06T08:38:53.172Z,101269.16
2018-12-06T08:41:20.989Z,101279.37
2018-12-06T08:43:48.752Z,101275.50
2018-12-06T08:46:16.562Z,101278.02
2018-12-06T08:48:44.378Z,101271.78
2018-12-06T08:51:12.138Z,101276.23
2018-12-06T08:53:39.892Z,101273.36
2018-12-06T08:56:07.692Z,101278.86
2018-12-06T08:58:35.451Z,101281.25
2018-12-06T09:01:03.300Z,101285.42
2018-12-06T09:03:31.019Z,101274.98
2018-12-06T09:05:58.948Z,101286.86
2018-12-06T09:08:26.747Z,101264.39
2018-12-06T09:10:54.496Z,101259.52
2018-12-06T09:13:22.278Z,101272.14
2018-12-06T09:15:50.035Z,101272.64
2018-12-06T09:18:17.865Z,101276.58
2018-12-06T09:20:45.582Z,101266.66
2018-12-06T09:23:13.383Z,101267.97
2018-12-06T09:25:41.165Z,101277.08
2018-12-06T09:28:08.921Z,101278.50
2018-12-06T09:30:36.677Z,101291.16
2018-12-06T09:33:04.465Z,101297.16
2018-12-06T09:35:32.388Z,101303.88
2018-12-06T09:38:00.167Z,101294.46
2018-12-06T09:40:28.065Z,101291.48
2018-12-06T09:42:55.787Z,101295.48
2018-12-06T09:45:23.621Z,101305.04
2018-12-06T09:47:51.424Z,101323.41
2018-12-06T09:50:19.289Z,101328.37
2018-12-06T09:52:47.051Z,101334.02
2018-12-06T09:55:15.113Z,101321.56
2018-12-06T09:57:42.988Z,101338.43
2018-12-06T10:00:13.525Z,101344.47
2018-12-06T10:02:41.349Z,101353.17
2018-12-06T10:05:09.454Z,101356.04
2018-12-06T10:07:37.211Z,101352.48
2018-12-06T10:10:05.585Z,101341.08
2018-12-06T10:12:33.428Z,101337.66
2018-12-06T10:15:01.186Z,101348.09
2018-12-06T10:17:28.973Z,101362.23
2018-12-06T10:19:56.750Z,101360.38
2018-12-06T10:22:24.488Z,101361.66
2018-12-06T10:24:52.225Z,101355.85
2018-12-06T10:27:19.928Z,101351.36
2018-12-06T10:29:47.757Z,101344.14
2018-12-06T10:32:15.480Z,101339.12
2018-12-06T10:34:43.260Z,101335.16
2018-12-06T10:37:11.184Z,101328.03
2018-12-06T10:39:38.933Z,101315.97
2018-12-06T10:42:06.756Z,101330.98
2018-12-06T10:44:34.636Z,101308.47
2018-12-06T10:47:02.412Z,101322.14
2018-12-06T10:49:30.241Z,101319.88
2018-12-06T10:51:58.113Z,101323.03
2018-12-06T10:54:25.861Z,101324.59
2018-12-06T10:56:53.733Z,101313.53
2018-12-06T10:59:22.324Z,101321.75
2018-12-06T11:01:55.609Z,101334.96
2018-12-06T11:04:27.851Z,101325.14
2018-12-06T11:06:55.658Z,101347.72
2018-12-06T11:09:23.415Z,101324.91
2018-12-06T11:11:51.210Z,101315.20
2018-12-06T11:14:19.010Z,101315.20
2018-12-06T11:16:46.764Z,101317.73
2018-12-06T11:19:14.544Z,101317.41
2018-12-06T11:21:42.356Z,101320.23
2018-12-06T11:24:10.252Z,101316.23
2018-12-06T11:26:38.013Z,101314.00
2018-12-06T11:29:05.995Z,101303.22
2018-12-06T11:31:33.790Z,101313.64
2018-12-06T11:34:01.677Z,101318.13
2018-12-06T11:36:29.458Z,101327.56
2018-12-06T11:38:57.201Z,101330.77
2018-12-06T11:41:25.040Z,101338.06
2018-12-06T11:43:52.814Z,101336.57
2018-12-06T11:46:20.574Z,101341.73
2018-12-06T11:48:48.334Z,101326.17
2018-12-06T11:51:16.156Z,101325.84
2018-12-06T11:53:43.919Z,101326.14
2018-12-06T11:56:11.703Z,101334.89
2018-12-06T11:58:39.564Z,101352.59
2018-12-06T12:01:07.421Z,101340.91
2018-12-06T12:03:35.411Z,101337.03
2018-12-06T12:06:03.269Z,101345.72
2018-12-06T12:08:31.173Z,101337.35
2018-12-06T12:10:58.972Z,101334.14
2018-12-06T12:13:26.719Z,101330.02
2018-12-06T12:15:54.510Z,101335.03
2018-12-06T12:18:22.273Z,101337.17
2018-12-06T12:20:50.003Z,101322.64
2018-12-06T12:23:17.833Z,101320.38
2018-12-06T12:25:45.631Z,101335.64
2018-12-06T12:28:13.395Z,101327.03
2018-12-06T12:30:41.229Z,101321.30
2018-12-06T12:33:09.049Z,101320.44
2018-12-06T12:35:36.827Z,101320.51
2018-12-06T12:38:04.569Z,101306.77
2018-12-06T12:40:32.331Z,101310.97
2018-12-06T12:43:00.180Z,101309.65
2018-12-06T12:45:27.996Z,101311.82
2018-12-06T12:47:55.784Z,101314.23
2018-12-06T12:50:24.518Z,101311.82
2018-12-06T12:52:52.258Z,101307.72
2018-12-06T12:55:20.105Z,101309.65
2018-12-06T12:57:47.825Z,101308.41
2018-12-06T13:00:15.623Z,101300.42
2018-12-06T13:02:43.563Z,101306.84
2018-12-06T13:05:12.334Z,101302.60
2018-12-06T13:07:40.095Z,101291.80
2018-12-06T13:10:07.884Z,101297.09
2018-12-06T13:12:35.677Z,101297.77
2018-12-06T13:15:03.746Z,101295.09
2018-12-06T13:17:31.553Z,101287.45
2018-12-06T13:19:59.341Z,101292.09
2018-12-06T13:22:27.105Z,101295.60
2018-12-06T13:24:54.956Z,101282.36
2018-12-06T13:27:22.686Z,101278.41
2018-12-06T13:29:50.454Z,101282.36
2018-12-06T13:32:18.230Z,101287.53
2018-12-06T13:34:46.070Z,101282.33
2018-12-06T13:37:14.081Z,101284.11
2018-12-06T13:39:41.981Z,101290.09
2018-12-06T13:42:09.922Z,101294.37
2018-12-06T13:44:37.680Z,101296.58
2018-12-06T13:47:05.818Z,101296.15
2018-12-06T13:49:33.546Z,101292.45
2018-12-06T13:52:01.349Z,101291.56
2018-12-06T13:54:29.146Z,101286.62
2018-12-06T13:56:56.892Z,101286.04
2018-12-06T13:59:24.655Z,101290.24
2018-12-06T14:01:52.561Z,101284.70
2018-12-06T14:04:20.381Z,101285.33
2018-12-06T14:06:48.125Z,101288.57
2018-12-06T14:09:15.879Z,101293.98
2018-12-06T14:11:43.671Z,101291.09
2018-12-06T14:14:11.457Z,101290.59
2018-12-06T14:16:39.265Z,101286.66
2018-12-06T14:19:07.149Z,101285.08
2018-12-06T14:21:34.932Z,101271.77
2018-12-06T14:24:02.700Z,101286.02
2018-12-06T14:26:30.500Z,101283.81
2018-12-06T14:28:58.276Z,101277.43
2018-12-06T14:31:26.077Z,101269.00
2018-12-06T14:33:53.978Z,101264.16
2018-12-06T14:36:21.734Z,101260.20
2018-12-06T14:38:49.492Z,101266.33
2018-12-06T14:41:17.279Z,101262.02
2018-12-06T14:43:45.018Z,101260.63
2018-12-06T14:46:12.788Z,101260.70
2018-12-06T14:48:40.826Z,101264.65
2018-12-06T14:51:08.569Z,101258.62
2018-12-06T14:53:36.352Z,101248.88
2018-12-06T14:56:04.113Z,101246.40
2018-12-06T14:58:31.888Z,101237.17
2018-12-06T15:00:59.705Z,101238.33
2018-12-06T15:03:27.462Z,101235.26
2018-12-06T15:05:55.201Z,101243.59
2018-12-06T15:08:22.956Z,101241.38
2018-12-06T15:10:50.810Z,101244.44
2018-12-06T15:13:18.841Z,101253.06
2018-12-06T15:15:46.640Z,101249.01
2018-12-06T15:18:14.545Z,101259.54
2018-12-06T15:20:42.366Z,101267.59
2018-12-06T15:23:10.215Z,101271.29
2018-12-06T15:25:41.778Z,101276.12
2018-12-06T15:28:07.809Z,101272.36
2018-12-06T15:30:35.588Z,101263.92
2018-12-06T15:33:03.775Z,101266.38
2018-12-06T15:35:31.577Z,101269.05
2018-12-06T15:37:59.325Z,101271.08
2018-12-06T15:40:27.026Z,101270.76
2018-12-06T15:42:54.809Z,101270.36
2018-12-06T15:45:22.569Z,101274.38
2018-12-06T15:47:50.634Z,101266.98
2018-12-06T15:50:18.359Z,101259.80
2018-12-06T15:52:46.052Z,101266.63
2018-12-06T15:55:13.813Z,101265.84
2018-12-06T15:57:41.629Z,101267.87
2018-12-06T16:00:12.045Z,101268.83
2018-12-06T16:02:39.923Z,101258.13
2018-12-06T16:05:07.733Z,101256.20
2018-12-06T16:07:35.504Z,101253.56
2018-12-06T16:10:03.989Z,101244.96
2018-12-06T16:12:31.753Z,101243.17
2018-12-06T16:14:59.508Z,101236.09
2018-12-06T16:17:27.280Z,101233.86
2018-12-06T16:19:55.056Z,101231.47
2018-12-06T16:22:22.864Z,101228.52
2018-12-06T16:24:50.582Z,101229.52
2018-12-06T16:27:18.367Z,101233.57
2018-12-06T16:29:51.380Z,101219.13
2018-12-06T16:32:16.076Z,101240.62
2018-12-06T16:34:43.788Z,101239.23
2018-12-06T16:37:11.503Z,101238.52
2018-12-06T16:39:39.265Z,101232.79
2018-12-06T16:42:07.041Z,101228.88
2018-12-06T16:44:34.816Z,101245.81
2018-12-06T16:47:02.565Z,101243.56
2018-12-06T16:49:30.623Z,101245.77
2018-12-06T16:51:58.512Z,101253.48
2018-12-06T16:54:26.264Z,101245.66
2018-12-06T16:56:54.038Z,101245.59
2018-12-06T16:59:21.757Z,101244.17
2018-12-06T17:01:49.507Z,101238.13
2018-12-06T17:04:17.282Z,101237.20
2018-12-06T17:06:45.117Z,101230.63
2018-12-06T17:09:12.916Z,101226.45
2018-12-06T17:11:40.677Z,101216.70
2018-12-06T17:14:08.526Z,101224.36
2018-12-06T17:16:36.215Z,101215.75
2018-12-06T17:19:04.102Z,101205.25
2018-12-06T17:21:31.929Z,101206.72
2018-12-06T17:23:59.654Z,101202.98
2018-12-06T17:26:27.438Z,101213.30
2018-12-06T17:28:55.177Z,101216.32
2018-12-06T17:31:22.910Z,101220.66
2018-12-06T17:33:50.730Z,101219.02
2018-12-06T17:36:18.528Z,101225.61
2018-12-06T17:38:46.255Z,101232.44
2018-12-06T17:41:13.999Z,101231.01
2018-12-06T17:43:41.773Z,101229.02
2018-12-06T17:46:09.628Z,101228.73
2018-12-06T17:48:37.494Z,101212.86
2018-12-06T17:51:05.226Z,101209.03
2018-12-06T17:53:33.000Z,101184.80
2018-12-06T17:56:01.964Z,101185.66
2018-12-06T17:58:29.834Z,101178.75
2018-12-06T18:00:57.560Z,101181.06
2018-12-06T18:03:25.427Z,101176.80
2018-12-06T18:05:53.268Z,101172.53
2018-12-06T18:08:21.033Z,101171.02
2018-12-06T18:10:49.045Z,101171.02
2018-12-06T18:13:16.841Z,101151.36
2018-12-06T18:15:45.614Z,101163.02
2018-12-06T18:18:13.461Z,101167.11
2018-12-06T18:20:42.614Z,101171.45
2018-12-06T18:23:10.470Z,101181.98
2018-12-06T18:25:38.432Z,101185.01
2018-12-06T18:28:06.238Z,101181.02
2018-12-06T18:30:34.001Z,101179.03
2018-12-06T18:33:01.941Z,101179.92
2018-12-06T18:35:29.897Z,101183.05
2018-12-06T18:37:57.702Z,101176.99
2018-12-06T18:40:25.573Z,101180.80
2018-12-06T18:42:53.310Z,101178.34
2018-12-06T18:45:21.032Z,101167.45
2018-12-06T18:47:48.764Z,101176.34
2018-12-06T18:50:16.508Z,101175.78
2018-12-06T18:52:44.224Z,101187.05
2018-12-06T18:55:12.111Z,101178.41
2018-12-06T18:57:39.906Z,101175.25
2018-12-06T19:00:09.695Z,101171.08
2018-12-06T19:02:37.463Z,101157.34
2018-12-06T19:05:05.557Z,101153.95
2018-12-06T19:07:33.334Z,101153.92
2018-12-06T19:10:01.088Z,101159.39
2018-12-06T19:12:28.892Z,101152.88
2018-12-06T19:14:56.948Z,101159.92
2018-12-06T19:17:24.739Z,101159.53
2018-12-06T19:19:52.544Z,101168.78
2018-12-06T19:22:20.339Z,101164.37
2018-12-06T19:24:48.267Z,101156.83
2018-12-06T19:27:16.048Z,101132.27
2018-12-06T19:29:43.792Z,101135.03
2018-12-06T19:32:11.572Z,101129.64
2018-12-06T19:34:39.612Z,101121.01
2018-12-06T19:37:07.410Z,101121.17
2018-12-06T19:39:35.718Z,101106.78
2018-12-06T19:42:03.540Z,101114.22
2018-12-06T19:44:31.275Z,101116.80
2018-12-06T19:46:59.060Z,101103.45
2018-12-06T19:49:27.267Z,101102.38
2018-12-06T19:51:55.058Z,101107.67
2018-12-06T19:54:22.837Z,101108.37
2018-12-06T19:56:50.576Z,101114.52
2018-12-06T19:59:18.384Z,101131.98
2018-12-06T20:01:46.152Z,101128.02
2018-12-06T20:04:13.918Z,101130.59
2018-12-06T20:06:42.719Z,101117.95
2018-12-06T20:09:10.597Z,101124.23
2018-12-06T20:11:38.354Z,101114.63
2018-12-06T20:14:06.117Z,101110.57
2018-12-06T20:16:33.955Z,101116.89
2018-12-06T20:19:01.758Z,101117.16
2018-12-06T20:21:29.543Z,101108.89
2018-12-06T20:23:57.340Z,101103.26
2018-12-06T20:26:25.124Z,101108.63
2018-12-06T20:28:52.892Z,101107.77
2018-12-06T20:31:21.268Z,101104.09
2018-12-06T20:33:49.084Z,101098.55
2018-12-06T20:36:16.828Z,101104.15
2018-12-06T20:38:44.616Z,101102.77
2018-12-06T20:41:12.374Z,101096.70
2018-12-06T20:43:40.134Z,101093.19
2018-12-06T20:46:07.963Z,101087.55
2018-12-06T20:48:35.771Z,101100.20
2018-12-06T20:51:03.592Z,101092.82
2018-12-06T20:53:31.461Z,101097.36
2018-12-06T20:55:59.212Z,101094.39
2018-12-06T20:58:26.942Z,101083.33
2018-12-06T21:00:54.773Z,101087.28
2018-12-06T21:03:22.808Z,101085.02
2018-12-06T21:05:50.618Z,101070.22
2018-12-06T21:08:18.914Z,101091.33
2018-12-06T21:10:46.753Z,101097.98
2018-12-06T21:13:14.585Z,101093.66
2018-12-06T21:15:42.388Z,101095.87
2018-12-06T21:18:10.289Z,101091.33
2018-12-06T21:20:38.038Z,101087.11
2018-12-06T21:23:06.703Z,101083.25
2018-12-06T21:25:34.450Z,101088.06
2018-12-06T21:28:02.204Z,101087.20
2018-12-06T21:30:29.930Z,101079.20
2018-12-06T21:32:57.705Z,101080.42
2018-12-06T21:35:26.410Z,101086.58
2018-12-06T21:37:54.155Z,101073.50
2018-12-06T21:40:21.904Z,101072.19
2018-12-06T21:42:49.633Z,101078.83
2018-12-06T21:45:17.391Z,101067.86
2018-12-06T21:47:45.148Z,101076.47
2018-12-06T21:50:12.905Z,101069.16
2018-12-06T21:52:40.768Z,101063.76
2018-12-06T21:55:08.516Z,101065.57
2018-12-06T21:57:36.304Z,101069.18
2018-12-06T22:00:04.896Z,101073.20
2018-12-06T22:02:33.658Z,101055.73
2018-12-06T22:05:01.464Z,101070.63
2018-12-06T22:07:29.252Z,101071.94
2018-12-06T22:09:56.975Z,101063.36
2018-12-06T22:12:24.766Z,101052.42
2018-12-06T22:14:52.547Z,101059.50
2018-12-06T22:17:20.304Z,101059.02
2018-12-06T22:19:48.078Z,101056.25
2018-12-06T22:22:15.865Z,101051.97
2018-12-06T22:24:43.654Z,101053.65
2018-12-06T22:27:11.414Z,101054.75
2018-12-06T22:29:39.236Z,101049.42
2018-12-06T22:32:07.910Z,101050.22
2018-12-06T22:34:35.674Z,101046.76
2018-12-06T22:37:03.546Z,101051.23
2018-12-06T22:39:31.291Z,101060.02
2018-12-06T22:41:59.001Z,101053.13
2018-12-06T22:44:26.793Z,101047.92
2018-12-06T22:46:54.572Z,101048.90
2018-12-06T22:49:22.364Z,101040.97
2018-12-06T22:51:50.093Z,101042.06
2018-12-06T22:54:17.908Z,101038.45
2018-12-06T22:56:46.339Z,101033.46
2018-12-06T22:59:14.514Z,101037.05
2018-12-06T23:01:42.927Z,101040.97
2018-12-06T23:04:10.694Z,101039.68
2018-12-06T23:06:38.622Z,101042.90
2018-12-06T23:09:09.921Z,101039.89
2018-12-06T23:11:38.526Z,101039.31
2018-12-06T23:14:06.946Z,101046.48
2018-12-06T23:16:34.678Z,101040.17
2018-12-06T23:19:03.099Z,101036.38
2018-12-06T23:21:30.827Z,101032.81
2018-12-06T23:23:58.818Z,101031.10
2018-12-06T23:26:26.572Z,101032.59
2018-12-06T23:28:54.340Z,101031.62
2018-12-06T23:31:22.119Z,101021.88
2018-12-06T23:33:49.830Z,101023.05
2018-12-06T23:36:17.520Z,101026.23
2018-12-06T23:38:45.368Z,101030.58
2018-12-06T23:41:13.134Z,101035.85
2018-12-06T23:43:40.904Z,101037.44
2018-12-06T23:46:08.808Z,101022.27
2018-12-06T23:48:36.545Z,101016.54
2018-12-06T23:51:15.373Z,101022.70
2018-12-06T23:53:43.154Z,101018.75
2018-12-06T23:56:10.965Z,101023.70
2018-12-06T23:58:38.758Z,101018.01
